Seaford, Virginia
Current Conditions -  °F | °C
As of 6:54 PM on Sunday 23 Nov 2014 (Local Time) from KPHF Reporting Station
Overcast Overcast  
Wind Chill: 57°   Ceiling: 4700
Heat Index: 57°   Visibility: 8mi
Dew Point: 52°   Wind: 5mph
Humidity: 83%   Direction: 100°E
Pressure: 30.05"   Gusts: NA
Location:  37.2°N, 76.43°W
Report Text: KPHF 232354Z 10004KT 8SM OVC047 14/11 A3005 RMK AO2 RAE29 SLP174 P0000 60000 T01390111 10167 20122 58022 $
Loading
Personal Weather Stations






























Interactive Weather Map New forecast layout! Learn more

10-Day Weather Forecast

Advertisements
Track Severe Weather on mobile